createdAt,value
2023-01-07T00:01:31.206Z,100607.39
2023-01-07T00:04:00.435Z,100604.27
2023-01-07T00:06:33.653Z,100603.42
2023-01-07T00:09:02.479Z,100604.61
2023-01-07T00:11:32.508Z,100603.54
2023-01-07T00:14:01.154Z,100608.66
2023-01-07T00:16:30.566Z,100606.54
2023-01-07T00:19:00.449Z,100610.64
2023-01-07T00:21:29.206Z,100606.02
2023-01-07T00:23:59.983Z,100605.00
2023-01-07T00:26:31.273Z,100607.89
2023-01-07T00:29:00.097Z,100609.98
2023-01-07T00:31:30.821Z,100606.18
2023-01-07T00:33:59.368Z,100610.52
2023-01-07T00:36:29.384Z,100611.36
2023-01-07T00:39:11.714Z,100612.30
2023-01-07T00:42:06.066Z,100619.35
2023-01-07T00:44:34.133Z,100614.52
2023-01-07T00:47:02.039Z,100614.73
2023-01-07T00:49:32.732Z,100612.66
2023-01-07T00:52:00.632Z,100612.94
2023-01-07T00:54:28.597Z,100610.85
2023-01-07T00:56:56.534Z,100611.98
2023-01-07T00:59:24.631Z,100615.35
2023-01-07T01:01:52.729Z,100612.70
2023-01-07T01:04:20.605Z,100612.73
2023-01-07T01:06:48.403Z,100616.20
2023-01-07T01:09:16.170Z,100617.88
2023-01-07T01:11:44.841Z,100617.70
2023-01-07T01:14:12.681Z,100618.88
2023-01-07T01:16:40.519Z,100616.75
2023-01-07T01:19:08.407Z,100618.98
2023-01-07T01:21:36.355Z,100619.00
2023-01-07T01:24:04.434Z,100621.05
2023-01-07T01:26:32.391Z,100621.33
2023-01-07T01:29:00.157Z,100621.16
2023-01-07T01:31:28.527Z,100621.01
2023-01-07T01:33:56.814Z,100618.20
2023-01-07T01:36:25.421Z,100620.70
2023-01-07T01:38:56.672Z,100619.08
2023-01-07T01:41:24.573Z,100617.62
2023-01-07T01:43:53.285Z,100619.05
2023-01-07T01:46:24.486Z,100616.70
2023-01-07T01:48:57.052Z,100614.59
2023-01-07T01:51:26.711Z,100615.64
2023-01-07T01:53:55.731Z,100613.20
2023-01-07T01:56:32.571Z,100613.52
2023-01-07T01:59:04.676Z,100610.48
2023-01-07T02:01:34.777Z,100611.27
2023-01-07T02:04:10.202Z,100613.15
2023-01-07T02:06:52.093Z,100610.77
2023-01-07T02:10:10.429Z,100612.96
2023-01-07T02:12:47.675Z,100609.53
2023-01-07T02:15:25.207Z,100610.34
2023-01-07T02:18:28.458Z,100603.83
2023-01-07T02:21:35.525Z,100599.47
2023-01-07T02:24:06.241Z,100592.89
2023-01-07T02:26:54.271Z,100591.80
2023-01-07T02:29:25.199Z,100591.45
2023-01-07T02:32:21.735Z,100596.60
2023-01-07T02:35:13.951Z,100599.83
2023-01-07T02:38:00.744Z,100603.98
2023-01-07T02:40:43.270Z,100601.52
2023-01-07T02:43:45.360Z,100598.25
2023-01-07T02:46:30.367Z,100598.52
2023-01-07T02:49:00.515Z,100596.41
2023-01-07T02:51:35.557Z,100597.54
2023-01-07T02:54:04.032Z,100599.66
2023-01-07T02:56:52.043Z,100605.23
2023-01-07T02:59:29.134Z,100601.85
2023-01-07T03:02:21.212Z,100600.12
2023-01-07T03:04:54.998Z,100594.09
2023-01-07T03:07:48.836Z,100589.10
2023-01-07T03:10:22.490Z,100589.27
2023-01-07T03:13:02.729Z,100591.18
2023-01-07T03:15:50.901Z,100594.90
2023-01-07T03:18:22.712Z,100592.54
2023-01-07T03:20:54.948Z,100591.83
2023-01-07T03:23:23.049Z,100589.71
2023-01-07T03:25:52.035Z,100594.16
2023-01-07T03:28:24.453Z,100598.90
2023-01-07T03:30:53.841Z,100596.73
2023-01-07T03:33:26.378Z,100590.52
2023-01-07T03:35:56.005Z,100586.73
2023-01-07T03:38:24.857Z,100586.29
2023-01-07T03:40:53.046Z,100583.95
2023-01-07T03:43:23.154Z,100582.12
2023-01-07T03:45:52.420Z,100581.66
2023-01-07T03:48:20.752Z,100585.30
2023-01-07T03:50:49.477Z,100585.38
2023-01-07T03:53:17.832Z,100583.08
2023-01-07T03:55:47.325Z,100585.48
2023-01-07T03:58:15.060Z,100584.62
2023-01-07T04:00:42.960Z,100585.42
2023-01-07T04:03:14.594Z,100584.83
2023-01-07T04:05:44.575Z,100585.36
2023-01-07T04:08:14.208Z,100587.17
2023-01-07T04:10:43.892Z,100588.36
2023-01-07T04:13:12.798Z,100587.55
2023-01-07T04:15:42.547Z,100585.33
2023-01-07T04:18:13.278Z,100584.38
2023-01-07T04:20:41.130Z,100585.27
2023-01-07T04:23:09.294Z,100585.80
2023-01-07T04:25:37.096Z,100582.51
2023-01-07T04:28:05.449Z,100580.52
2023-01-07T04:30:35.882Z,100579.35
2023-01-07T04:33:05.719Z,100576.70
2023-01-07T04:35:34.238Z,100578.10
2023-01-07T04:38:02.912Z,100579.27
2023-01-07T04:40:30.809Z,100576.63
2023-01-07T04:42:59.535Z,100573.70
2023-01-07T04:45:27.559Z,100566.98
2023-01-07T04:47:56.558Z,100566.73
2023-01-07T04:50:24.702Z,100572.61
2023-01-07T04:52:53.045Z,100573.73
2023-01-07T04:55:20.818Z,100576.13
2023-01-07T04:57:49.321Z,100575.30
2023-01-07T05:00:18.192Z,100576.13
2023-01-07T05:02:47.293Z,100578.84
2023-01-07T05:05:15.373Z,100580.34
2023-01-07T05:07:44.624Z,100576.66
2023-01-07T05:10:13.547Z,100578.55
2023-01-07T05:12:41.672Z,100580.56
2023-01-07T05:15:11.361Z,100579.31
2023-01-07T05:17:40.786Z,100581.34
2023-01-07T05:20:09.179Z,100581.15
2023-01-07T05:22:37.590Z,100579.58
2023-01-07T05:25:06.381Z,100575.45
2023-01-07T05:27:34.167Z,100571.96
2023-01-07T05:30:03.728Z,100570.23
2023-01-07T05:32:31.518Z,100571.08
2023-01-07T05:34:59.303Z,100570.38
2023-01-07T05:37:27.062Z,100576.65
2023-01-07T05:39:55.979Z,100579.13
2023-01-07T05:42:23.770Z,100576.72
2023-01-07T05:44:51.783Z,100583.67
2023-01-07T05:47:19.512Z,100582.36
2023-01-07T05:49:47.493Z,100579.45
2023-01-07T05:52:15.304Z,100576.69
2023-01-07T05:54:43.142Z,100574.56
2023-01-07T05:57:11.345Z,100575.90
2023-01-07T05:59:39.076Z,100581.71
2023-01-07T06:02:06.892Z,100580.21
2023-01-07T06:04:34.681Z,100584.02
2023-01-07T06:07:02.501Z,100585.81
2023-01-07T06:09:30.226Z,100586.33
2023-01-07T06:11:58.008Z,100586.86
2023-01-07T06:14:25.714Z,100590.34
2023-01-07T06:16:53.476Z,100593.84
2023-01-07T06:19:23.029Z,100595.05
2023-01-07T06:21:50.872Z,100599.52
2023-01-07T06:24:18.625Z,100593.57
2023-01-07T06:26:46.416Z,100595.84
2023-01-07T06:29:14.320Z,100601.27
2023-01-07T06:31:42.038Z,100594.48
2023-01-07T06:34:10.079Z,100596.15
2023-01-07T06:36:37.844Z,100598.19
2023-01-07T06:39:05.672Z,100599.17
2023-01-07T06:41:33.443Z,100600.68
2023-01-07T06:44:01.417Z,100596.13
2023-01-07T06:46:29.459Z,100595.29
2023-01-07T06:48:57.465Z,100598.16
2023-01-07T06:51:25.211Z,100600.79
2023-01-07T06:53:52.944Z,100596.54
2023-01-07T06:56:21.011Z,100598.90
2023-01-07T06:58:48.738Z,100599.84
2023-01-07T07:01:16.541Z,100603.75
2023-01-07T07:03:44.548Z,100597.66
2023-01-07T07:06:12.359Z,100593.95
2023-01-07T07:08:40.138Z,100590.91
2023-01-07T07:11:07.944Z,100592.17
2023-01-07T07:13:36.111Z,100594.80
2023-01-07T07:16:04.273Z,100595.49
2023-01-07T07:18:32.619Z,100596.71
2023-01-07T07:21:00.495Z,100589.33
2023-01-07T07:23:28.299Z,100591.05
2023-01-07T07:25:56.058Z,100596.96
2023-01-07T07:28:23.850Z,100600.14
2023-01-07T07:30:51.673Z,100598.19
2023-01-07T07:33:19.851Z,100596.02
2023-01-07T07:35:48.242Z,100592.39
2023-01-07T07:38:17.709Z,100590.15
2023-01-07T07:40:46.506Z,100591.03
2023-01-07T07:43:15.046Z,100589.73
2023-01-07T07:45:43.233Z,100592.86
2023-01-07T07:48:13.475Z,100590.09
2023-01-07T07:50:41.551Z,100591.54
2023-01-07T07:53:10.641Z,100591.72
2023-01-07T07:55:39.074Z,100588.79
2023-01-07T07:58:06.884Z,100590.58
2023-01-07T08:00:34.809Z,100594.27
2023-01-07T08:03:02.992Z,100589.29
2023-01-07T08:05:31.273Z,100590.02
2023-01-07T08:07:59.306Z,100591.42
2023-01-07T08:10:27.913Z,100591.14
2023-01-07T08:12:55.782Z,100592.48
2023-01-07T08:15:23.579Z,100593.77
2023-01-07T08:18:02.728Z,100596.22
2023-01-07T08:20:31.006Z,100593.77
2023-01-07T08:23:00.589Z,100598.02
2023-01-07T08:25:29.848Z,100593.91
2023-01-07T08:27:59.092Z,100590.58
2023-01-07T08:30:28.022Z,100591.50
2023-01-07T08:32:56.360Z,100593.48
2023-01-07T08:35:24.320Z,100593.44
2023-01-07T08:37:52.144Z,100592.46
2023-01-07T08:40:19.883Z,100591.69
2023-01-07T08:42:47.700Z,100592.73
2023-01-07T08:45:15.623Z,100591.39
2023-01-07T08:47:47.670Z,100588.43
2023-01-07T08:50:15.450Z,100584.76
2023-01-07T08:52:46.575Z,100591.02
2023-01-07T08:55:14.455Z,100588.61
2023-01-07T08:57:42.211Z,100585.20
2023-01-07T09:00:10.678Z,100578.94
2023-01-07T09:02:38.501Z,100579.14
2023-01-07T09:05:07.084Z,100576.98
2023-01-07T09:07:35.138Z,100579.70
2023-01-07T09:10:03.918Z,100579.64
2023-01-07T09:12:31.742Z,100578.42
2023-01-07T09:14:59.567Z,100580.80
2023-01-07T09:17:28.015Z,100578.38
2023-01-07T09:19:55.756Z,100578.48
2023-01-07T09:22:23.667Z,100576.59
2023-01-07T09:24:51.439Z,100578.98
2023-01-07T09:27:19.220Z,100575.52
2023-01-07T09:29:46.947Z,100579.56
2023-01-07T09:32:14.777Z,100575.96
2023-01-07T09:34:42.472Z,100577.73
2023-01-07T09:37:10.197Z,100574.95
2023-01-07T09:39:37.987Z,100573.77
2023-01-07T09:42:13.696Z,100577.27
2023-01-07T09:45:01.414Z,100571.00
2023-01-07T09:47:29.710Z,100574.19
2023-01-07T09:50:02.256Z,100571.73
2023-01-07T09:52:44.433Z,100571.36
2023-01-07T09:55:19.972Z,100569.30
2023-01-07T09:57:48.416Z,100573.97
2023-01-07T10:00:22.669Z,100570.92
2023-01-07T10:03:06.485Z,100565.41
2023-01-07T10:05:37.021Z,100561.08
2023-01-07T10:08:32.164Z,100561.36
2023-01-07T10:11:03.109Z,100561.55
2023-01-07T10:13:49.188Z,100564.20
2023-01-07T10:16:45.906Z,100560.67
2023-01-07T10:19:19.768Z,100563.61
2023-01-07T10:21:54.004Z,100556.17
2023-01-07T10:24:27.844Z,100549.19
2023-01-07T10:26:58.821Z,100547.38
2023-01-07T10:29:32.791Z,100543.71
2023-01-07T10:32:10.640Z,100543.37
2023-01-07T10:34:46.244Z,100538.05
2023-01-07T10:37:33.783Z,100535.86
2023-01-07T10:40:23.108Z,100531.88
2023-01-07T10:42:54.535Z,100529.83
2023-01-07T10:45:50.117Z,100525.98
2023-01-07T10:48:39.812Z,100524.63
2023-01-07T10:51:23.374Z,100521.67
2023-01-07T10:54:06.546Z,100518.86
2023-01-07T10:56:47.000Z,100511.52
2023-01-07T10:59:17.774Z,100511.14
2023-01-07T11:01:49.067Z,100516.27
2023-01-07T11:04:17.622Z,100508.99
2023-01-07T11:06:57.565Z,100502.62
2023-01-07T11:09:35.618Z,100503.67
2023-01-07T11:12:21.563Z,100503.77
2023-01-07T11:14:49.664Z,100500.56
2023-01-07T11:17:36.396Z,100497.63
2023-01-07T11:20:05.378Z,100493.94
2023-01-07T11:22:35.763Z,100487.82
2023-01-07T11:25:28.165Z,100481.52
2023-01-07T11:28:01.094Z,100478.66
2023-01-07T11:30:29.656Z,100479.90
2023-01-07T11:33:07.125Z,100479.52
2023-01-07T11:35:35.111Z,100475.95
2023-01-07T11:38:03.056Z,100474.58
2023-01-07T11:40:32.502Z,100473.48
2023-01-07T11:43:01.578Z,100473.51
2023-01-07T11:45:38.531Z,100471.05
2023-01-07T11:48:08.732Z,100468.73
2023-01-07T11:50:37.518Z,100466.83
2023-01-07T11:53:14.569Z,100465.59
2023-01-07T11:56:00.041Z,100460.21
2023-01-07T11:58:33.938Z,100456.67
2023-01-07T12:01:07.592Z,100452.75
2023-01-07T12:03:46.151Z,100450.70
2023-01-07T12:06:19.364Z,100448.92
2023-01-07T12:09:27.244Z,100444.00
2023-01-07T12:11:57.590Z,100438.46
2023-01-07T12:14:31.447Z,100439.06
2023-01-07T12:17:16.399Z,100432.96
2023-01-07T12:20:06.210Z,100430.79
2023-01-07T12:22:40.172Z,100430.34
2023-01-07T12:25:34.648Z,100427.33
2023-01-07T12:28:46.961Z,100423.56
2023-01-07T12:31:39.882Z,100419.19
2023-01-07T12:34:25.728Z,100415.05
2023-01-07T12:37:12.630Z,100404.19
2023-01-07T12:39:44.092Z,100403.77
2023-01-07T12:44:56.941Z,100393.63
2023-01-07T12:47:31.322Z,100386.23
2023-01-07T12:50:06.934Z,100383.99
2023-01-07T12:53:00.740Z,100382.25
2023-01-07T12:55:35.713Z,100383.92
2023-01-07T12:58:26.016Z,100382.18
2023-01-07T13:01:05.269Z,100379.92
2023-01-07T13:03:45.405Z,100373.11
2023-01-07T13:06:34.566Z,100368.08
2023-01-07T13:09:09.790Z,100364.27
2023-01-07T13:12:01.134Z,100365.52
2023-01-07T13:14:37.389Z,100365.58
2023-01-07T13:17:24.747Z,100361.73
2023-01-07T13:19:53.795Z,100357.94
2023-01-07T13:22:30.783Z,100356.35
2023-01-07T13:25:17.837Z,100351.10
2023-01-07T13:28:19.330Z,100347.24
2023-01-07T13:31:29.856Z,100347.69
2023-01-07T13:34:42.139Z,100346.83
2023-01-07T13:37:31.444Z,100341.75
2023-01-07T13:40:06.266Z,100334.24
2023-01-07T13:42:43.219Z,100333.55
2023-01-07T13:45:25.100Z,100332.15
2023-01-07T13:47:58.587Z,100338.52
2023-01-07T13:50:39.519Z,100342.63
2023-01-07T13:53:27.396Z,100340.27
2023-01-07T13:56:17.844Z,100341.06
2023-01-07T13:58:56.302Z,100343.14
2023-01-07T14:01:34.959Z,100347.16
2023-01-07T14:04:09.089Z,100344.50
2023-01-07T14:06:40.013Z,100345.23
2023-01-07T14:09:07.761Z,100347.77
2023-01-07T14:11:36.187Z,100353.67
2023-01-07T14:14:13.118Z,100353.77
2023-01-07T14:16:43.184Z,100354.52
2023-01-07T14:19:16.743Z,100351.16
2023-01-07T14:22:01.528Z,100349.09
2023-01-07T14:24:41.633Z,100347.93
2023-01-07T14:27:30.513Z,100349.40
2023-01-07T14:30:15.970Z,100346.60
2023-01-07T14:32:44.883Z,100341.13
2023-01-07T14:35:12.934Z,100338.80
2023-01-07T14:37:45.223Z,100334.42
2023-01-07T14:40:34.595Z,100329.19
2023-01-07T14:43:03.734Z,100324.46
2023-01-07T14:45:38.322Z,100322.73
2023-01-07T14:48:08.829Z,100322.11
2023-01-07T14:50:42.421Z,100324.62
2023-01-07T14:53:16.154Z,100326.56
2023-01-07T14:55:57.037Z,100325.40
2023-01-07T14:58:39.924Z,100328.44
2023-01-07T15:01:26.712Z,100331.24
2023-01-07T15:04:18.067Z,100321.98
2023-01-07T15:06:46.449Z,100320.88
2023-01-07T15:09:36.666Z,100321.08
2023-01-07T15:12:26.513Z,100322.05
2023-01-07T15:15:22.815Z,100317.64
2023-01-07T15:17:50.641Z,100309.76
2023-01-07T15:20:18.452Z,100305.78
2023-01-07T15:23:10.875Z,100307.70
2023-01-07T15:26:05.690Z,100314.81
2023-01-07T15:28:46.115Z,100306.36
2023-01-07T15:31:36.126Z,100305.39
2023-01-07T15:34:08.867Z,100306.48
2023-01-07T15:36:45.520Z,100304.77
2023-01-07T15:39:22.633Z,100306.02
2023-01-07T15:41:53.155Z,100303.67
2023-01-07T15:44:22.353Z,100301.45
2023-01-07T15:46:50.347Z,100297.45
2023-01-07T15:49:23.995Z,100298.36
2023-01-07T15:51:59.714Z,100294.58
2023-01-07T15:54:34.864Z,100292.29
2023-01-07T15:57:04.696Z,100285.66
2023-01-07T15:59:35.695Z,100288.79
2023-01-07T16:02:24.231Z,100297.80
2023-01-07T16:04:55.185Z,100292.21
2023-01-07T16:07:43.186Z,100290.73
2023-01-07T16:10:22.147Z,100288.40
2023-01-07T16:12:52.548Z,100284.27
2023-01-07T16:15:21.659Z,100290.14
2023-01-07T16:17:51.330Z,100287.83
2023-01-07T16:20:29.400Z,100287.89
2023-01-07T16:23:27.066Z,100289.05
2023-01-07T16:26:10.595Z,100287.45
2023-01-07T16:28:41.960Z,100282.67
2023-01-07T16:31:13.159Z,100285.56
2023-01-07T16:33:42.488Z,100283.84
2023-01-07T16:36:19.611Z,100281.74
2023-01-07T16:38:52.185Z,100272.65
2023-01-07T16:41:23.511Z,100269.27
2023-01-07T16:43:54.157Z,100269.55
2023-01-07T16:46:29.760Z,100265.79
2023-01-07T16:49:30.205Z,100264.02
2023-01-07T16:52:04.128Z,100258.02
2023-01-07T16:54:37.355Z,100254.94
2023-01-07T16:57:11.709Z,100247.52
2023-01-07T16:59:45.843Z,100249.50
2023-01-07T17:02:28.887Z,100255.19
2023-01-07T17:05:12.849Z,100257.30
2023-01-07T17:07:41.494Z,100253.69
2023-01-07T17:10:28.037Z,100254.89
2023-01-07T17:12:59.472Z,100245.17
2023-01-07T17:15:33.745Z,100243.61
2023-01-07T17:18:14.515Z,100243.69
2023-01-07T17:20:53.264Z,100251.98
2023-01-07T17:23:27.549Z,100251.85
2023-01-07T17:26:07.809Z,100250.52
2023-01-07T17:28:43.311Z,100249.31
2023-01-07T17:31:11.292Z,100244.47
2023-01-07T17:33:39.690Z,100243.23
2023-01-07T17:36:15.024Z,100247.40
2023-01-07T17:38:43.704Z,100248.29
2023-01-07T17:41:33.229Z,100248.84
2023-01-07T17:44:01.869Z,100242.96
2023-01-07T17:46:32.613Z,100243.91
2023-01-07T17:49:03.661Z,100244.68
2023-01-07T17:51:33.053Z,100244.64
2023-01-07T17:54:01.012Z,100245.19
2023-01-07T17:56:29.263Z,100244.88
2023-01-07T17:58:57.090Z,100243.19
2023-01-07T18:01:25.993Z,100241.30
2023-01-07T18:03:54.365Z,100242.23
2023-01-07T18:06:24.653Z,100248.02
2023-01-07T18:08:53.449Z,100241.87
2023-01-07T18:11:43.585Z,100242.83
2023-01-07T18:14:15.517Z,100238.19
2023-01-07T18:16:43.401Z,100239.37
2023-01-07T18:19:14.884Z,100237.14
2023-01-07T18:21:43.139Z,100233.05
2023-01-07T18:24:18.579Z,100229.38
2023-01-07T18:26:47.123Z,100229.55
2023-01-07T18:29:15.019Z,100224.23
2023-01-07T18:31:44.097Z,100219.77
2023-01-07T18:34:13.672Z,100222.24
2023-01-07T18:36:41.782Z,100221.23
2023-01-07T18:39:10.773Z,100226.77
2023-01-07T18:41:39.723Z,100226.57
2023-01-07T18:44:07.570Z,100230.81
2023-01-07T18:46:35.336Z,100233.77
2023-01-07T18:49:03.158Z,100233.55
2023-01-07T18:51:30.886Z,100235.17
2023-01-07T18:53:58.901Z,100230.04
2023-01-07T18:56:26.736Z,100231.46
2023-01-07T18:58:55.188Z,100227.19
2023-01-07T19:01:23.429Z,100228.75
2023-01-07T19:03:51.625Z,100226.27
2023-01-07T19:06:19.611Z,100221.19
2023-01-07T19:08:47.320Z,100222.25
2023-01-07T19:11:22.257Z,100222.61
2023-01-07T19:13:50.104Z,100217.58
2023-01-07T19:16:18.223Z,100212.53
2023-01-07T19:18:46.411Z,100213.63
2023-01-07T19:21:14.798Z,100211.26
2023-01-07T19:23:42.805Z,100204.91
2023-01-07T19:26:11.530Z,100200.17
2023-01-07T19:28:39.304Z,100196.11
2023-01-07T19:31:08.462Z,100197.76
2023-01-07T19:33:36.889Z,100197.30
2023-01-07T19:36:09.021Z,100200.49
2023-01-07T19:38:42.248Z,100203.66
2023-01-07T19:41:16.914Z,100203.21
2023-01-07T19:43:46.424Z,100200.33
2023-01-07T19:46:21.114Z,100197.33
2023-01-07T19:48:49.531Z,100190.69
2023-01-07T19:51:17.329Z,100194.71
2023-01-07T19:53:45.162Z,100197.35
2023-01-07T19:56:12.997Z,100193.86
2023-01-07T19:58:42.102Z,100193.18
2023-01-07T20:01:15.824Z,100190.84
2023-01-07T20:03:44.392Z,100190.73
2023-01-07T20:06:14.581Z,100189.05
2023-01-07T20:08:42.439Z,100186.83
2023-01-07T20:11:10.689Z,100183.79
2023-01-07T20:13:39.435Z,100180.70
2023-01-07T20:16:09.575Z,100179.48
2023-01-07T20:18:39.003Z,100176.73
2023-01-07T20:21:07.661Z,100168.40
2023-01-07T20:23:38.874Z,100164.33
2023-01-07T20:26:12.021Z,100164.63
2023-01-07T20:28:41.051Z,100168.16
2023-01-07T20:31:11.498Z,100166.52
2023-01-07T20:33:40.690Z,100163.61
2023-01-07T20:36:10.795Z,100162.70
2023-01-07T20:38:39.206Z,100154.36
2023-01-07T20:41:08.358Z,100155.69
2023-01-07T20:43:37.187Z,100148.95
2023-01-07T20:46:07.914Z,100145.39
2023-01-07T20:48:35.944Z,100138.60
2023-01-07T20:51:08.736Z,100132.95
2023-01-07T20:53:36.693Z,100128.90
2023-01-07T20:56:05.333Z,100130.73
2023-01-07T20:58:35.193Z,100128.88
2023-01-07T21:01:07.913Z,100129.62
2023-01-07T21:03:35.965Z,100128.52
2023-01-07T21:06:04.308Z,100117.11
2023-01-07T21:08:32.000Z,100112.05
2023-01-07T21:10:59.776Z,100110.67
2023-01-07T21:13:27.597Z,100107.20
2023-01-07T21:16:02.723Z,100096.89
2023-01-07T21:18:31.894Z,100093.63
2023-01-07T21:21:00.922Z,100089.56
2023-01-07T21:23:29.077Z,100086.00
2023-01-07T21:25:57.124Z,100085.61
2023-01-07T21:28:25.882Z,100086.36
2023-01-07T21:30:53.704Z,100082.91
2023-01-07T21:33:21.442Z,100076.30
2023-01-07T21:35:49.167Z,100071.38
2023-01-07T21:38:17.320Z,100066.00
2023-01-07T21:40:47.116Z,100061.30
2023-01-07T21:43:14.816Z,100051.27
2023-01-07T21:45:42.813Z,100047.14
2023-01-07T21:48:10.684Z,100043.48
2023-01-07T21:50:38.713Z,100044.70
2023-01-07T21:53:06.584Z,100046.03
2023-01-07T21:55:37.862Z,100044.14
2023-01-07T21:58:05.650Z,100050.27
2023-01-07T22:00:33.411Z,100052.29
2023-01-07T22:03:01.403Z,100048.71
2023-01-07T22:05:29.493Z,100047.73
2023-01-07T22:07:57.206Z,100047.42
2023-01-07T22:10:25.066Z,100047.26
2023-01-07T22:12:52.927Z,100048.53
2023-01-07T22:19:40.962Z,100039.91
2023-01-07T22:22:12.047Z,100031.87
2023-01-07T22:24:44.176Z,100022.38
2023-01-07T22:27:13.174Z,100006.42
2023-01-07T22:29:46.956Z,100016.55
2023-01-07T22:32:23.116Z,100011.71
2023-01-07T22:34:52.143Z,100009.46
2023-01-07T22:37:21.861Z,99998.25
2023-01-07T22:39:57.976Z,100010.92
2023-01-07T22:42:33.796Z,100014.02
2023-01-07T22:45:10.005Z,100018.33
2023-01-07T22:47:41.935Z,100019.80
2023-01-07T22:50:11.331Z,100010.88
2023-01-07T22:52:40.245Z,100008.20
2023-01-07T22:55:09.504Z,100012.42
2023-01-07T22:57:39.513Z,100008.17
2023-01-07T23:00:16.482Z,100009.30
2023-01-07T23:02:45.490Z,100012.02
2023-01-07T23:05:14.603Z,100008.45
2023-01-07T23:07:43.354Z,100009.70
2023-01-07T23:10:12.286Z,100006.59
2023-01-07T23:12:41.061Z,99995.27
2023-01-07T23:15:10.391Z,99993.96
2023-01-07T23:17:39.342Z,99987.95
2023-01-07T23:20:08.953Z,99985.42
2023-01-07T23:22:38.052Z,99979.48
2023-01-07T23:25:07.059Z,99980.38
2023-01-07T23:27:34.907Z,99979.48
2023-01-07T23:30:02.849Z,99970.64
2023-01-07T23:32:30.717Z,99970.33
2023-01-07T23:34:58.432Z,99968.79
2023-01-07T23:37:26.404Z,99968.98
2023-01-07T23:39:54.105Z,99964.20
2023-01-07T23:42:22.075Z,99965.04
2023-01-07T23:44:49.851Z,99966.69
2023-01-07T23:47:17.573Z,99968.46
2023-01-07T23:49:45.332Z,99969.34
2023-01-07T23:52:13.103Z,99967.11
2023-01-07T23:54:41.175Z,99962.83
2023-01-07T23:57:09.269Z,99960.41
2023-01-07T23:59:37.844Z,99954.83
